createdAt,value
2022-11-01T00:04:27.338Z,90.56
2022-11-01T00:10:00.384Z,90.82
2022-11-01T00:15:32.540Z,90.92
2022-11-01T00:21:04.121Z,91.22
2022-11-01T00:26:35.703Z,90.94
2022-11-01T00:32:07.379Z,91.26
2022-11-01T00:37:39.175Z,91.21
2022-11-01T00:48:40.441Z,90.66
2022-11-01T00:54:12.692Z,90.61
2022-11-01T00:59:44.638Z,90.81
2022-11-01T01:05:16.495Z,90.64
2022-11-01T01:10:48.362Z,90.55
2022-11-01T01:16:19.969Z,90.41
2022-11-01T01:21:51.904Z,90.41
2022-11-01T01:32:53.173Z,90.31
2022-11-01T01:38:25.041Z,88.83
2022-11-01T01:43:56.635Z,89.56
2022-11-01T01:49:28.669Z,89.69
2022-11-01T01:55:00.506Z,90.27
2022-11-01T02:00:32.415Z,90.24
2022-11-01T02:06:04.229Z,90.21
2022-11-01T02:11:36.320Z,90.42
2022-11-01T02:17:09.607Z,90.23
2022-11-01T02:22:40.105Z,90.35
2022-11-01T02:28:11.897Z,90.16
2022-11-01T02:33:43.800Z,89.82
2022-11-01T02:44:47.119Z,89.45
2022-11-01T02:50:19.017Z,89.39
2022-11-01T02:55:50.798Z,88.57
2022-11-01T03:01:24.082Z,89.18
2022-11-01T03:06:55.746Z,89.08
2022-11-01T03:17:59.686Z,88.91
2022-11-01T03:23:31.602Z,88.46
2022-11-01T03:34:35.497Z,88.56
2022-11-01T03:40:07.025Z,89.28
2022-11-01T03:45:39.040Z,89.47
2022-11-01T03:51:10.929Z,89.52
2022-11-01T03:56:42.541Z,89.48
2022-11-01T04:02:14.833Z,89.86
2022-11-01T04:07:46.830Z,89.86
2022-11-01T04:13:18.875Z,90.24
2022-11-01T04:18:50.982Z,91.06
2022-11-01T04:24:22.965Z,90.36
2022-11-01T04:29:54.904Z,90.29
2022-11-01T04:35:27.091Z,90.75
2022-11-01T04:40:59.411Z,90.35
2022-11-01T04:46:31.473Z,89.78
2022-11-01T04:52:03.532Z,89.59
2022-11-01T04:57:35.629Z,89.96
2022-11-01T05:03:07.302Z,89.72
2022-11-01T05:08:39.149Z,89.39
2022-11-01T05:14:11.492Z,89.80
2022-11-01T05:19:43.590Z,89.77
2022-11-01T05:25:15.382Z,89.62
2022-11-01T05:30:47.056Z,89.65
2022-11-01T05:36:18.854Z,87.23
2022-11-01T05:41:50.492Z,86.77
2022-11-01T05:47:22.295Z,87.28
2022-11-01T05:52:54.240Z,88.14
2022-11-01T05:55:06.425Z,88.32
2022-11-01T06:00:38.781Z,88.98
2022-11-01T06:06:10.647Z,89.26
2022-11-01T06:11:42.270Z,89.40
2022-11-01T06:17:14.949Z,89.19
2022-11-01T06:22:46.913Z,89.64
2022-11-01T06:28:18.637Z,90.65
2022-11-01T06:33:50.587Z,90.47
2022-11-01T06:39:22.289Z,90.75
2022-11-01T06:44:54.218Z,91.09
2022-11-01T06:50:26.090Z,91.22
2022-11-01T06:55:57.891Z,91.63
2022-11-01T07:01:29.636Z,91.53
2022-11-01T07:07:01.334Z,91.34
2022-11-01T07:12:33.057Z,91.17
2022-11-01T07:18:05.046Z,90.94
2022-11-01T07:23:36.535Z,90.78
2022-11-01T07:29:08.271Z,90.32
2022-11-01T07:34:40.222Z,89.62
2022-11-01T07:40:11.951Z,89.18
2022-11-01T07:45:43.850Z,88.93
2022-11-01T07:51:15.476Z,87.63
2022-11-01T07:56:47.209Z,86.22
2022-11-01T08:02:19.164Z,84.60
2022-11-01T08:07:50.717Z,82.71
2022-11-01T08:13:22.488Z,80.73
2022-11-01T08:15:45.708Z,79.33
2022-11-01T08:21:17.223Z,79.35
2022-11-01T08:26:49.308Z,76.32
2022-11-01T08:32:20.925Z,76.43
2022-11-01T08:37:52.698Z,75.77
2022-11-01T08:43:24.833Z,74.00
2022-11-01T08:48:56.888Z,71.51
2022-11-01T09:00:00.923Z,69.91
2022-11-01T09:05:32.875Z,69.14
2022-11-01T09:11:04.598Z,68.34
2022-11-01T09:16:36.345Z,68.68
2022-11-01T09:22:08.066Z,68.06
2022-11-01T09:27:39.867Z,67.95
2022-11-01T09:33:11.612Z,68.79
2022-11-01T09:44:14.747Z,69.51
2022-11-01T09:49:46.615Z,68.09
2022-11-01T10:00:49.902Z,69.82
2022-11-01T10:06:21.240Z,69.44
2022-11-01T10:11:53.107Z,68.62
2022-11-01T10:17:24.870Z,69.37
2022-11-01T10:22:56.691Z,69.28
2022-11-01T10:28:28.432Z,68.72
2022-11-01T10:33:59.941Z,67.81
2022-11-01T10:50:34.570Z,68.12
2022-11-01T10:56:06.257Z,67.59
2022-11-01T11:01:38.244Z,66.61
2022-11-01T11:07:09.692Z,65.66
2022-11-01T11:12:50.098Z,64.24
2022-11-01T11:34:56.859Z,62.51
2022-11-01T11:40:28.523Z,62.09
2022-11-01T11:46:00.427Z,62.83
2022-11-01T11:51:32.023Z,62.21
2022-11-01T11:57:03.831Z,60.97
2022-11-01T12:02:35.146Z,61.22
2022-11-01T12:13:39.617Z,61.99
2022-11-01T12:19:12.945Z,62.28
2022-11-01T12:24:44.281Z,62.24
2022-11-01T12:30:15.968Z,61.73
2022-11-01T12:35:47.459Z,62.58
2022-11-01T12:46:48.269Z,62.76
2022-11-01T12:52:19.577Z,63.37
2022-11-01T13:03:20.539Z,64.56
2022-11-01T13:08:52.402Z,64.46
2022-11-01T13:14:24.224Z,64.53
2022-11-01T13:19:56.155Z,64.92
2022-11-01T13:25:28.051Z,64.96
2022-11-01T13:30:59.962Z,64.71
2022-11-01T13:36:31.859Z,64.83
2022-11-01T13:42:03.902Z,64.80
2022-11-01T13:47:36.065Z,65.06
2022-11-01T13:53:08.116Z,65.22
2022-11-01T13:58:39.727Z,65.64
2022-11-01T14:04:11.458Z,65.73
2022-11-01T14:09:43.500Z,65.86
2022-11-01T14:15:15.855Z,66.37
2022-11-01T14:20:47.996Z,66.19
2022-11-01T14:26:20.387Z,65.86
2022-11-01T14:31:52.875Z,65.78
2022-11-01T14:37:24.788Z,65.77
2022-11-01T14:42:56.931Z,66.14
2022-11-01T14:48:29.013Z,66.37
2022-11-01T14:54:01.148Z,66.57
2022-11-01T14:59:33.515Z,67.06
2022-11-01T15:05:05.697Z,67.10
2022-11-01T15:10:37.765Z,67.17
2022-11-01T15:16:09.980Z,67.32
2022-11-01T15:21:46.634Z,67.45
2022-11-01T15:27:14.439Z,67.68
2022-11-01T15:32:46.554Z,68.09
2022-11-01T15:38:20.975Z,68.41
2022-11-01T15:43:50.047Z,68.83
2022-11-01T15:49:21.979Z,68.94
2022-11-01T15:54:53.995Z,69.26
2022-11-01T16:00:26.460Z,69.35
2022-11-01T16:05:59.751Z,69.65
2022-11-01T16:11:29.903Z,70.16
2022-11-01T16:17:01.811Z,70.56
2022-11-01T16:22:33.602Z,70.79
2022-11-01T16:28:05.370Z,71.08
2022-11-01T16:33:36.927Z,71.29
2022-11-01T16:39:08.789Z,71.34
2022-11-01T16:44:40.377Z,71.73
2022-11-01T16:50:12.497Z,71.56
2022-11-01T16:55:44.701Z,71.94
2022-11-01T17:01:16.521Z,72.28
2022-11-01T17:06:48.250Z,72.82
2022-11-01T17:12:20.423Z,72.87
2022-11-01T17:17:52.541Z,72.65
2022-11-01T17:23:24.196Z,73.40
2022-11-01T17:28:56.023Z,73.73
2022-11-01T17:34:27.796Z,73.38
2022-11-01T17:39:59.965Z,73.63
2022-11-01T17:45:31.903Z,74.07
2022-11-01T17:51:03.462Z,74.43
2022-11-01T17:56:35.490Z,74.17
2022-11-01T18:02:07.972Z,74.33
2022-11-01T18:07:40.086Z,74.99
2022-11-01T18:13:11.692Z,75.50
2022-11-01T18:18:44.963Z,75.67
2022-11-01T18:24:22.025Z,76.10
2022-11-01T18:29:48.395Z,76.59
2022-11-01T18:35:20.261Z,76.24
2022-11-01T18:40:52.001Z,76.65
2022-11-01T18:46:25.878Z,76.66
2022-11-01T18:51:55.930Z,76.65
2022-11-01T18:57:27.792Z,76.67
2022-11-01T19:02:59.799Z,76.70
2022-11-01T19:08:31.799Z,76.76
2022-11-01T19:14:03.557Z,77.07
2022-11-01T19:19:35.336Z,74.67
2022-11-01T19:25:07.116Z,75.93
2022-11-01T19:30:39.048Z,75.51
2022-11-01T19:36:10.772Z,75.00
2022-11-01T19:41:42.579Z,73.86
2022-11-01T19:47:16.122Z,75.89
2022-11-01T19:52:47.660Z,77.18
2022-11-01T20:03:48.016Z,78.57
2022-11-01T20:09:19.914Z,78.85
2022-11-01T20:14:51.425Z,79.34
2022-11-01T20:20:23.256Z,79.31
2022-11-01T20:25:54.969Z,79.65
2022-11-01T20:31:26.924Z,79.64
2022-11-01T20:37:28.788Z,80.12
2022-11-01T20:42:30.667Z,80.41
2022-11-01T20:48:02.206Z,80.82
2022-11-01T20:53:33.897Z,81.21
2022-11-01T20:59:05.930Z,81.09
2022-11-01T21:04:37.926Z,81.27
2022-11-01T21:10:10.116Z,81.19
2022-11-01T21:15:41.854Z,81.35
2022-11-01T21:21:13.651Z,81.88
2022-11-01T21:26:45.641Z,81.96
2022-11-01T21:28:57.008Z,82.32
2022-11-01T21:40:04.273Z,83.37
2022-11-01T21:45:30.141Z,82.69
2022-11-01T21:49:51.448Z,82.93
2022-11-01T21:55:23.159Z,82.90
2022-11-01T22:00:54.910Z,82.34
2022-11-01T22:06:26.752Z,82.52
2022-11-01T22:11:58.780Z,82.62
2022-11-01T22:17:30.447Z,82.87
2022-11-01T22:23:02.487Z,83.42
2022-11-01T22:28:34.179Z,83.89
2022-11-01T22:34:06.249Z,84.32
2022-11-01T22:39:38.154Z,83.97
2022-11-01T22:45:09.998Z,84.19
2022-11-01T22:50:41.819Z,84.65
2022-11-01T22:56:13.543Z,84.85
2022-11-01T23:01:45.488Z,84.56
